sensor_id;sensor_type;location;lat;lon;timestamp;temperature;humidity
25628;DHT22;40915;50.826;4.356;2024-03-06T15:16:34;12.80;99.90
25628;DHT22;40915;50.826;4.356;2024-03-06T15:19:00;12.90;99.90
25628;DHT22;40915;50.826;4.356;2024-03-06T15:21:29;13.10;99.90
25628;DHT22;40915;50.826;4.356;2024-03-06T15:23:56;13.40;99.90
25628;DHT22;40915;50.826;4.356;2024-03-06T15:26:21;13.50;99.90
25628;DHT22;40915;50.826;4.356;2024-03-06T15:28:47;13.50;99.90
25628;DHT22;40915;50.826;4.356;2024-03-06T15:31:12;13.40;99.90
25628;DHT22;40915;50.826;4.356;2024-03-06T15:33:38;13.40;99.90
25628;DHT22;40915;50.826;4.356;2024-03-06T15:36:04;13.30;99.90
25628;DHT22;40915;50.826;4.356;2024-03-06T15:38:30;12.90;99.90
25628;DHT22;40915;50.826;4.356;2024-03-06T15:40:57;12.60;99.90
25628;DHT22;40915;50.826;4.356;2024-03-06T15:43:22;12.50;99.90
25628;DHT22;40915;50.826;4.356;2024-03-06T15:45:48;12.40;99.90
25628;DHT22;40915;50.826;4.356;2024-03-06T15:48:14;12.30;99.90
25628;DHT22;40915;50.826;4.356;2024-03-06T15:50:43;12.10;99.90
25628;DHT22;40915;50.826;4.356;2024-03-06T15:53:10;12.00;99.90
25628;DHT22;40915;50.826;4.356;2024-03-06T15:55:35;11.90;99.90
25628;DHT22;40915;50.826;4.356;2024-03-06T15:58:05;11.90;99.90
25628;DHT22;40915;50.826;4.356;2024-03-06T16:00:31;11.90;99.90
25628;DHT22;40915;50.826;4.356;2024-03-06T16:02:57;11.80;99.90
25628;DHT22;40915;50.826;4.356;2024-03-06T16:05:25;11.80;99.90
25628;DHT22;40915;50.826;4.356;2024-03-06T16:07:56;11.80;99.90
25628;DHT22;40915;50.826;4.356;2024-03-06T16:10:23;11.80;99.90
25628;DHT22;40915;50.826;4.356;2024-03-06T16:12:49;11.80;99.90
25628;DHT22;40915;50.826;4.356;2024-03-06T16:15:14;11.80;99.90
25628;DHT22;40915;50.826;4.356;2024-03-06T16:17:41;11.70;99.90
25628;DHT22;40915;50.826;4.356;2024-03-06T16:20:07;11.70;99.90
25628;DHT22;40915;50.826;4.356;2024-03-06T16:22:36;11.60;99.90
25628;DHT22;40915;50.826;4.356;2024-03-06T16:25:02;11.70;99.90
25628;DHT22;40915;50.826;4.356;2024-03-06T16:27:27;11.60;99.90
25628;DHT22;40915;50.826;4.356;2024-03-06T16:29:55;11.60;99.90
25628;DHT22;40915;50.826;4.356;2024-03-06T16:32:20;11.50;99.90
25628;DHT22;40915;50.826;4.356;2024-03-06T16:34:46;11.40;99.90
25628;DHT22;40915;50.826;4.356;2024-03-06T16:37:12;11.30;99.90
25628;DHT22;40915;50.826;4.356;2024-03-06T16:39:37;11.30;99.90
25628;DHT22;40915;50.826;4.356;2024-03-06T21:47:41;9.20;99.90
25628;DHT22;40915;50.826;4.356;2024-03-06T21:50:08;9.10;99.90
25628;DHT22;40915;50.826;4.356;2024-03-06T21:52:34;9.00;99.90
25628;DHT22;40915;50.826;4.356;2024-03-06T21:55:01;8.90;99.90
25628;DHT22;40915;50.826;4.356;2024-03-06T21:57:28;8.80;99.90
25628;DHT22;40915;50.826;4.356;2024-03-06T21:59:54;8.80;99.90
25628;DHT22;40915;50.826;4.356;2024-03-06T22:02:20;8.70;99.90
25628;DHT22;40915;50.826;4.356;2024-03-06T22:04:46;8.60;99.90
25628;DHT22;40915;50.826;4.356;2024-03-06T22:07:11;8.60;99.90
25628;DHT22;40915;50.826;4.356;2024-03-06T22:09:38;8.60;99.90
25628;DHT22;40915;50.826;4.356;2024-03-06T22:12:04;8.50;99.90
25628;DHT22;40915;50.826;4.356;2024-03-06T22:14:30;8.50;99.90
25628;DHT22;40915;50.826;4.356;2024-03-06T22:16:57;8.50;99.90
25628;DHT22;40915;50.826;4.356;2024-03-06T22:19:23;8.50;99.90
25628;DHT22;40915;50.826;4.356;2024-03-06T22:21:49;8.50;99.90
25628;DHT22;40915;50.826;4.356;2024-03-06T22:24:15;8.50;99.90
25628;DHT22;40915;50.826;4.356;2024-03-06T22:26:40;8.50;99.90
25628;DHT22;40915;50.826;4.356;2024-03-06T22:29:06;8.50;99.90
25628;DHT22;40915;50.826;4.356;2024-03-06T22:31:37;8.50;99.90
25628;DHT22;40915;50.826;4.356;2024-03-06T22:34:03;8.50;99.90
25628;DHT22;40915;50.826;4.356;2024-03-06T22:36:30;8.50;99.90
25628;DHT22;40915;50.826;4.356;2024-03-06T22:38:56;8.40;99.90
25628;DHT22;40915;50.826;4.356;2024-03-06T22:41:23;8.40;99.90
25628;DHT22;40915;50.826;4.356;2024-03-06T22:43:50;8.40;99.90
25628;DHT22;40915;50.826;4.356;2024-03-06T22:46:16;8.30;99.90
25628;DHT22;40915;50.826;4.356;2024-03-06T22:48:42;8.30;99.90
25628;DHT22;40915;50.826;4.356;2024-03-06T22:51:10;8.20;99.90
25628;DHT22;40915;50.826;4.356;2024-03-06T22:53:36;8.30;99.90
25628;DHT22;40915;50.826;4.356;2024-03-06T22:56:03;8.20;99.90
25628;DHT22;40915;50.826;4.356;2024-03-06T22:58:29;8.20;99.90
25628;DHT22;40915;50.826;4.356;2024-03-06T23:00:55;8.20;99.90
25628;DHT22;40915;50.826;4.356;2024-03-06T23:03:21;8.20;99.90
25628;DHT22;40915;50.826;4.356;2024-03-06T23:05:47;8.10;99.90
25628;DHT22;40915;50.826;4.356;2024-03-06T23:08:13;8.10;99.90
25628;DHT22;40915;50.826;4.356;2024-03-06T23:10:39;8.10;99.90
25628;DHT22;40915;50.826;4.356;2024-03-06T23:13:09;8.00;99.90
25628;DHT22;40915;50.826;4.356;2024-03-06T23:15:38;8.00;99.90
25628;DHT22;40915;50.826;4.356;2024-03-06T23:18:04;8.00;99.90
25628;DHT22;40915;50.826;4.356;2024-03-06T23:20:30;8.00;99.90
25628;DHT22;40915;50.826;4.356;2024-03-06T23:22:56;8.00;99.90
25628;DHT22;40915;50.826;4.356;2024-03-06T23:25:21;8.00;99.90
25628;DHT22;40915;50.826;4.356;2024-03-06T23:27:47;8.00;99.90
25628;DHT22;40915;50.826;4.356;2024-03-06T23:30:14;8.00;99.90
25628;DHT22;40915;50.826;4.356;2024-03-06T23:32:42;8.00;99.90
25628;DHT22;40915;50.826;4.356;2024-03-06T23:35:09;8.00;99.90
25628;DHT22;40915;50.826;4.356;2024-03-06T23:37:36;7.90;99.90
25628;DHT22;40915;50.826;4.356;2024-03-06T23:40:04;7.90;99.90
25628;DHT22;40915;50.826;4.356;2024-03-06T23:42:37;7.90;99.90
25628;DHT22;40915;50.826;4.356;2024-03-06T23:45:05;7.90;99.90
25628;DHT22;40915;50.826;4.356;2024-03-06T23:47:30;7.90;99.90
25628;DHT22;40915;50.826;4.356;2024-03-06T23:49:56;7.90;99.90
25628;DHT22;40915;50.826;4.356;2024-03-06T23:52:22;7.80;99.90
25628;DHT22;40915;50.826;4.356;2024-03-06T23:54:48;7.80;99.90
25628;DHT22;40915;50.826;4.356;2024-03-06T23:57:14;7.80;99.90
25628;DHT22;40915;50.826;4.356;2024-03-06T23:59:40;7.80;99.90
